sensor_id;sensor_type;location;lat;lon;timestamp;P1;durP1;ratioP1;P2;durP2;ratioP2
57551;SDS011;43379;48.160;14.036;2023-02-21T00:02:30;2.90;;;2.60;;
57551;SDS011;43379;48.160;14.036;2023-02-21T00:05:14;4.33;;;3.07;;
57551;SDS011;43379;48.160;14.036;2023-02-21T00:07:59;4.60;;;3.53;;
57551;SDS011;43379;48.160;14.036;2023-02-21T00:10:43;2.93;;;2.43;;
57551;SDS011;43379;48.160;14.036;2023-02-21T00:13:27;2.97;;;2.77;;
57551;SDS011;43379;48.160;14.036;2023-02-21T00:16:15;3.10;;;2.90;;
57551;SDS011;43379;48.160;14.036;2023-02-21T00:19:00;3.40;;;3.10;;
57551;SDS011;43379;48.160;14.036;2023-02-21T00:21:44;3.37;;;2.83;;
57551;SDS011;43379;48.160;14.036;2023-02-21T00:24:28;3.87;;;2.80;;
57551;SDS011;43379;48.160;14.036;2023-02-21T00:27:12;4.27;;;3.20;;
57551;SDS011;43379;48.160;14.036;2023-02-21T00:29:56;3.60;;;2.80;;
57551;SDS011;43379;48.160;14.036;2023-02-21T00:32:40;2.87;;;2.40;;
57551;SDS011;43379;48.160;14.036;2023-02-21T00:35:24;6.23;;;2.80;;
57551;SDS011;43379;48.160;14.036;2023-02-21T00:38:09;4.20;;;3.50;;
57551;SDS011;43379;48.160;14.036;2023-02-21T00:40:53;2.90;;;2.70;;
57551;SDS011;43379;48.160;14.036;2023-02-21T00:43:38;3.17;;;2.87;;
57551;SDS011;43379;48.160;14.036;2023-02-21T00:46:22;5.10;;;3.10;;
57551;SDS011;43379;48.160;14.036;2023-02-21T00:49:06;3.30;;;3.00;;
57551;SDS011;43379;48.160;14.036;2023-02-21T00:51:52;2.47;;;2.27;;
57551;SDS011;43379;48.160;14.036;2023-02-21T00:54:36;3.70;;;2.60;;
57551;SDS011;43379;48.160;14.036;2023-02-21T00:57:20;3.73;;;3.20;;
57551;SDS011;43379;48.160;14.036;2023-02-21T01:00:05;3.27;;;3.03;;
57551;SDS011;43379;48.160;14.036;2023-02-21T01:02:52;2.80;;;2.60;;
57551;SDS011;43379;48.160;14.036;2023-02-21T01:05:36;3.00;;;2.60;;
57551;SDS011;43379;48.160;14.036;2023-02-21T01:08:20;3.80;;;2.60;;
57551;SDS011;43379;48.160;14.036;2023-02-21T01:11:04;4.03;;;3.23;;
57551;SDS011;43379;48.160;14.036;2023-02-21T01:13:48;3.20;;;2.30;;
57551;SDS011;43379;48.160;14.036;2023-02-21T01:16:33;3.50;;;3.20;;
57551;SDS011;43379;48.160;14.036;2023-02-21T01:19:17;2.90;;;2.40;;
57551;SDS011;43379;48.160;14.036;2023-02-21T01:22:02;4.80;;;2.83;;
57551;SDS011;43379;48.160;14.036;2023-02-21T01:24:48;2.80;;;2.50;;
57551;SDS011;43379;48.160;14.036;2023-02-21T01:27:33;2.73;;;2.40;;
57551;SDS011;43379;48.160;14.036;2023-02-21T01:30:17;3.23;;;2.30;;
57551;SDS011;43379;48.160;14.036;2023-02-21T01:33:01;2.93;;;2.67;;
57551;SDS011;43379;48.160;14.036;2023-02-21T01:35:45;2.57;;;2.23;;
57551;SDS011;43379;48.160;14.036;2023-02-21T01:38:31;2.60;;;2.40;;
57551;SDS011;43379;48.160;14.036;2023-02-21T01:41:17;6.43;;;2.40;;
57551;SDS011;43379;48.160;14.036;2023-02-21T01:44:03;2.33;;;2.07;;
57551;SDS011;43379;48.160;14.036;2023-02-21T01:47:09;4.73;;;2.23;;
57551;SDS011;43379;48.160;14.036;2023-02-21T01:49:55;2.43;;;2.23;;
57551;SDS011;43379;48.160;14.036;2023-02-21T01:52:41;3.50;;;3.20;;
57551;SDS011;43379;48.160;14.036;2023-02-21T01:55:25;2.70;;;2.33;;
57551;SDS011;43379;48.160;14.036;2023-02-21T01:58:09;3.43;;;2.50;;
57551;SDS011;43379;48.160;14.036;2023-02-21T02:00:53;4.03;;;2.53;;
57551;SDS011;43379;48.160;14.036;2023-02-21T02:03:37;2.60;;;2.10;;
57551;SDS011;43379;48.160;14.036;2023-02-21T02:06:23;3.20;;;2.60;;
57551;SDS011;43379;48.160;14.036;2023-02-21T02:09:18;4.33;;;2.43;;
57551;SDS011;43379;48.160;14.036;2023-02-21T02:23:05;3.90;;;2.50;;
57551;SDS011;43379;48.160;14.036;2023-02-21T02:37:32;2.57;;;2.37;;
57551;SDS011;43379;48.160;14.036;2023-02-21T02:48:20;2.20;;;2.10;;
57551;SDS011;43379;48.160;14.036;2023-02-21T02:50:46;4.40;;;2.47;;
57551;SDS011;43379;48.160;14.036;2023-02-21T02:53:15;2.53;;;2.33;;
57551;SDS011;43379;48.160;14.036;2023-02-21T02:55:47;3.47;;;2.30;;
57551;SDS011;43379;48.160;14.036;2023-02-21T02:58:16;3.70;;;2.07;;
57551;SDS011;43379;48.160;14.036;2023-02-21T03:00:47;3.70;;;2.33;;
57551;SDS011;43379;48.160;14.036;2023-02-21T03:12:17;2.50;;;1.80;;
57551;SDS011;43379;48.160;14.036;2023-02-21T03:17:29;4.00;;;2.20;;
57551;SDS011;43379;48.160;14.036;2023-02-21T03:20:00;2.70;;;2.10;;
57551;SDS011;43379;48.160;14.036;2023-02-21T03:22:28;2.20;;;2.00;;
57551;SDS011;43379;48.160;14.036;2023-02-21T03:24:56;4.40;;;2.43;;
57551;SDS011;43379;48.160;14.036;2023-02-21T03:27:23;2.93;;;2.60;;
57551;SDS011;43379;48.160;14.036;2023-02-21T03:29:51;5.63;;;2.37;;
57551;SDS011;43379;48.160;14.036;2023-02-21T03:34:46;2.37;;;2.17;;
57551;SDS011;43379;48.160;14.036;2023-02-21T03:37:20;4.30;;;1.80;;
57551;SDS011;43379;48.160;14.036;2023-02-21T03:40:08;3.00;;;2.20;;
57551;SDS011;43379;48.160;14.036;2023-02-21T03:42:36;2.30;;;2.10;;
57551;SDS011;43379;48.160;14.036;2023-02-21T03:45:01;3.43;;;1.97;;
57551;SDS011;43379;48.160;14.036;2023-02-21T03:47:27;2.70;;;2.30;;
57551;SDS011;43379;48.160;14.036;2023-02-21T03:49:53;2.87;;;2.00;;
57551;SDS011;43379;48.160;14.036;2023-02-21T03:52:18;2.90;;;1.90;;
57551;SDS011;43379;48.160;14.036;2023-02-21T03:54:44;2.60;;;2.20;;
57551;SDS011;43379;48.160;14.036;2023-02-21T03:57:10;5.37;;;2.20;;
57551;SDS011;43379;48.160;14.036;2023-02-21T03:59:35;2.97;;;2.33;;
57551;SDS011;43379;48.160;14.036;2023-02-21T04:02:01;3.73;;;2.13;;
57551;SDS011;43379;48.160;14.036;2023-02-21T04:04:27;2.30;;;2.10;;
57551;SDS011;43379;48.160;14.036;2023-02-21T04:06:52;3.70;;;2.13;;
57551;SDS011;43379;48.160;14.036;2023-02-21T04:09:18;2.70;;;2.00;;
57551;SDS011;43379;48.160;14.036;2023-02-21T04:11:44;3.27;;;2.53;;
57551;SDS011;43379;48.160;14.036;2023-02-21T04:14:10;4.73;;;2.00;;
57551;SDS011;43379;48.160;14.036;2023-02-21T04:16:37;2.60;;;2.37;;
57551;SDS011;43379;48.160;14.036;2023-02-21T04:19:03;2.17;;;1.97;;
57551;SDS011;43379;48.160;14.036;2023-02-21T04:21:28;2.67;;;2.47;;
57551;SDS011;43379;48.160;14.036;2023-02-21T04:23:54;3.63;;;2.63;;
57551;SDS011;43379;48.160;14.036;2023-02-21T04:26:20;3.37;;;3.00;;
57551;SDS011;43379;48.160;14.036;2023-02-21T04:28:48;6.50;;;2.57;;
57551;SDS011;43379;48.160;14.036;2023-02-21T04:31:14;2.60;;;2.40;;
57551;SDS011;43379;48.160;14.036;2023-02-21T04:33:41;2.63;;;2.43;;
57551;SDS011;43379;48.160;14.036;2023-02-21T04:36:07;2.70;;;2.50;;
57551;SDS011;43379;48.160;14.036;2023-02-21T04:38:33;4.13;;;2.43;;
57551;SDS011;43379;48.160;14.036;2023-02-21T04:40:59;2.53;;;2.33;;
57551;SDS011;43379;48.160;14.036;2023-02-21T04:43:25;2.30;;;2.10;;
57551;SDS011;43379;48.160;14.036;2023-02-21T04:45:51;2.90;;;2.37;;
57551;SDS011;43379;48.160;14.036;2023-02-21T04:48:16;2.60;;;2.33;;
57551;SDS011;43379;48.160;14.036;2023-02-21T04:50:42;4.40;;;2.87;;
57551;SDS011;43379;48.160;14.036;2023-02-21T04:53:08;3.00;;;2.47;;
57551;SDS011;43379;48.160;14.036;2023-02-21T04:55:33;2.97;;;2.67;;
57551;SDS011;43379;48.160;14.036;2023-02-21T04:58:00;4.40;;;2.43;;
57551;SDS011;43379;48.160;14.036;2023-02-21T05:00:26;5.23;;;2.63;;
57551;SDS011;43379;48.160;14.036;2023-02-21T05:02:52;3.77;;;2.40;;
57551;SDS011;43379;48.160;14.036;2023-02-21T05:05:18;3.33;;;1.77;;
57551;SDS011;43379;48.160;14.036;2023-02-21T05:07:44;2.37;;;2.17;;
57551;SDS011;43379;48.160;14.036;2023-02-21T05:10:09;7.13;;;2.80;;
57551;SDS011;43379;48.160;14.036;2023-02-21T05:12:36;3.60;;;2.37;;
57551;SDS011;43379;48.160;14.036;2023-02-21T05:15:05;3.30;;;3.00;;
57551;SDS011;43379;48.160;14.036;2023-02-21T05:17:32;3.00;;;2.70;;
57551;SDS011;43379;48.160;14.036;2023-02-21T05:19:58;3.27;;;2.43;;
57551;SDS011;43379;48.160;14.036;2023-02-21T05:22:23;2.80;;;2.03;;
57551;SDS011;43379;48.160;14.036;2023-02-21T05:24:49;4.03;;;2.70;;
57551;SDS011;43379;48.160;14.036;2023-02-21T05:27:15;2.90;;;2.43;;
57551;SDS011;43379;48.160;14.036;2023-02-21T05:29:49;2.03;;;1.90;;
57551;SDS011;43379;48.160;14.036;2023-02-21T05:32:16;2.43;;;2.10;;
57551;SDS011;43379;48.160;14.036;2023-02-21T05:34:44;2.50;;;2.30;;
57551;SDS011;43379;48.160;14.036;2023-02-21T05:37:15;5.23;;;2.77;;
57551;SDS011;43379;48.160;14.036;2023-02-21T05:39:41;2.83;;;2.53;;
57551;SDS011;43379;48.160;14.036;2023-02-21T05:42:07;3.57;;;2.50;;
57551;SDS011;43379;48.160;14.036;2023-02-21T05:44:33;2.90;;;2.10;;
57551;SDS011;43379;48.160;14.036;2023-02-21T05:46:59;2.70;;;2.50;;
57551;SDS011;43379;48.160;14.036;2023-02-21T05:49:26;3.23;;;2.93;;
57551;SDS011;43379;48.160;14.036;2023-02-21T05:51:52;2.57;;;2.37;;
57551;SDS011;43379;48.160;14.036;2023-02-21T05:54:19;6.33;;;3.03;;
57551;SDS011;43379;48.160;14.036;2023-02-21T05:56:46;5.93;;;2.90;;
57551;SDS011;43379;48.160;14.036;2023-02-21T05:59:13;2.70;;;2.17;;
57551;SDS011;43379;48.160;14.036;2023-02-21T06:01:40;8.70;;;2.90;;
57551;SDS011;43379;48.160;14.036;2023-02-21T06:04:06;4.13;;;2.67;;
57551;SDS011;43379;48.160;14.036;2023-02-21T06:06:32;3.93;;;2.60;;
57551;SDS011;43379;48.160;14.036;2023-02-21T06:08:58;5.27;;;4.13;;
57551;SDS011;43379;48.160;14.036;2023-02-21T06:11:30;9.27;;;8.10;;
57551;SDS011;43379;48.160;14.036;2023-02-21T06:14:01;4.83;;;4.33;;
57551;SDS011;43379;48.160;14.036;2023-02-21T06:16:35;4.27;;;2.40;;
57551;SDS011;43379;48.160;14.036;2023-02-21T06:19:03;4.17;;;3.23;;
57551;SDS011;43379;48.160;14.036;2023-02-21T06:21:30;3.37;;;3.03;;
57551;SDS011;43379;48.160;14.036;2023-02-21T06:23:55;9.47;;;8.20;;
57551;SDS011;43379;48.160;14.036;2023-02-21T06:26:21;15.43;;;13.97;;
57551;SDS011;43379;48.160;14.036;2023-02-21T06:28:47;12.10;;;11.00;;
57551;SDS011;43379;48.160;14.036;2023-02-21T06:31:13;20.17;;;18.27;;
57551;SDS011;43379;48.160;14.036;2023-02-21T06:33:40;18.00;;;16.30;;
57551;SDS011;43379;48.160;14.036;2023-02-21T06:36:16;13.07;;;12.17;;
57551;SDS011;43379;48.160;14.036;2023-02-21T06:38:44;8.23;;;7.63;;
57551;SDS011;43379;48.160;14.036;2023-02-21T06:41:13;5.70;;;3.63;;
57551;SDS011;43379;48.160;14.036;2023-02-21T06:43:40;4.50;;;4.10;;
57551;SDS011;43379;48.160;14.036;2023-02-21T06:46:06;4.50;;;3.77;;
57551;SDS011;43379;48.160;14.036;2023-02-21T06:48:31;5.70;;;3.43;;
57551;SDS011;43379;48.160;14.036;2023-02-21T06:50:57;4.23;;;3.17;;
57551;SDS011;43379;48.160;14.036;2023-02-21T06:53:23;4.07;;;3.10;;
57551;SDS011;43379;48.160;14.036;2023-02-21T06:55:49;5.20;;;2.80;;
57551;SDS011;43379;48.160;14.036;2023-02-21T06:58:15;6.47;;;3.00;;
57551;SDS011;43379;48.160;14.036;2023-02-21T07:00:40;3.63;;;3.30;;
57551;SDS011;43379;48.160;14.036;2023-02-21T07:03:06;2.87;;;2.67;;
57551;SDS011;43379;48.160;14.036;2023-02-21T07:05:32;2.60;;;2.40;;
57551;SDS011;43379;48.160;14.036;2023-02-21T07:08:00;3.10;;;2.83;;
57551;SDS011;43379;48.160;14.036;2023-02-21T07:10:26;4.43;;;2.70;;
57551;SDS011;43379;48.160;14.036;2023-02-21T07:12:52;3.23;;;2.77;;
57551;SDS011;43379;48.160;14.036;2023-02-21T07:15:18;4.13;;;2.97;;
57551;SDS011;43379;48.160;14.036;2023-02-21T07:17:44;2.93;;;2.40;;
57551;SDS011;43379;48.160;14.036;2023-02-21T07:20:10;4.30;;;2.57;;
57551;SDS011;43379;48.160;14.036;2023-02-21T07:22:35;4.00;;;3.70;;
57551;SDS011;43379;48.160;14.036;2023-02-21T07:25:01;4.77;;;3.40;;
57551;SDS011;43379;48.160;14.036;2023-02-21T07:27:27;9.07;;;4.33;;
57551;SDS011;43379;48.160;14.036;2023-02-21T07:29:53;5.00;;;4.60;;
57551;SDS011;43379;48.160;14.036;2023-02-21T07:32:19;4.07;;;3.60;;
57551;SDS011;43379;48.160;14.036;2023-02-21T07:34:45;7.40;;;3.60;;
57551;SDS011;43379;48.160;14.036;2023-02-21T07:37:11;5.30;;;2.83;;
57551;SDS011;43379;48.160;14.036;2023-02-21T07:39:37;4.63;;;3.30;;
57551;SDS011;43379;48.160;14.036;2023-02-21T07:42:03;4.43;;;3.33;;
57551;SDS011;43379;48.160;14.036;2023-02-21T07:44:29;4.63;;;3.30;;
57551;SDS011;43379;48.160;14.036;2023-02-21T07:46:55;6.97;;;3.70;;
57551;SDS011;43379;48.160;14.036;2023-02-21T07:49:21;6.33;;;3.70;;
57551;SDS011;43379;48.160;14.036;2023-02-21T07:51:47;4.00;;;3.30;;
57551;SDS011;43379;48.160;14.036;2023-02-21T07:54:14;5.30;;;3.57;;
57551;SDS011;43379;48.160;14.036;2023-02-21T07:56:47;6.07;;;3.20;;
57551;SDS011;43379;48.160;14.036;2023-02-21T07:59:14;3.63;;;3.30;;
57551;SDS011;43379;48.160;14.036;2023-02-21T08:01:40;3.43;;;3.07;;
57551;SDS011;43379;48.160;14.036;2023-02-21T08:04:06;4.10;;;2.97;;
57551;SDS011;43379;48.160;14.036;2023-02-21T08:06:33;5.23;;;3.57;;
57551;SDS011;43379;48.160;14.036;2023-02-21T08:08:59;3.47;;;3.17;;
57551;SDS011;43379;48.160;14.036;2023-02-21T08:11:25;4.13;;;3.20;;
57551;SDS011;43379;48.160;14.036;2023-02-21T08:13:51;4.30;;;3.10;;
57551;SDS011;43379;48.160;14.036;2023-02-21T08:16:16;5.50;;;3.40;;
57551;SDS011;43379;48.160;14.036;2023-02-21T08:18:42;3.50;;;3.20;;
57551;SDS011;43379;48.160;14.036;2023-02-21T08:21:08;3.77;;;3.43;;
57551;SDS011;43379;48.160;14.036;2023-02-21T08:23:35;4.40;;;3.30;;
57551;SDS011;43379;48.160;14.036;2023-02-21T08:26:02;3.83;;;3.37;;
57551;SDS011;43379;48.160;14.036;2023-02-21T08:28:28;4.47;;;3.90;;
57551;SDS011;43379;48.160;14.036;2023-02-21T08:30:54;4.07;;;3.67;;
57551;SDS011;43379;48.160;14.036;2023-02-21T08:33:20;3.60;;;3.30;;
57551;SDS011;43379;48.160;14.036;2023-02-21T08:35:46;4.17;;;3.77;;
57551;SDS011;43379;48.160;14.036;2023-02-21T08:38:11;5.70;;;4.33;;
57551;SDS011;43379;48.160;14.036;2023-02-21T08:40:37;3.93;;;3.23;;
57551;SDS011;43379;48.160;14.036;2023-02-21T08:43:03;3.63;;;3.33;;
57551;SDS011;43379;48.160;14.036;2023-02-21T08:45:30;3.90;;;3.50;;
57551;SDS011;43379;48.160;14.036;2023-02-21T08:47:56;4.17;;;3.40;;
57551;SDS011;43379;48.160;14.036;2023-02-21T08:50:22;14.03;;;4.20;;
57551;SDS011;43379;48.160;14.036;2023-02-21T08:52:50;5.33;;;3.60;;
57551;SDS011;43379;48.160;14.036;2023-02-21T08:55:16;4.50;;;4.07;;
57551;SDS011;43379;48.160;14.036;2023-02-21T08:57:43;7.50;;;4.30;;
57551;SDS011;43379;48.160;14.036;2023-02-21T09:00:10;4.33;;;3.93;;
57551;SDS011;43379;48.160;14.036;2023-02-21T09:02:37;4.23;;;3.77;;
57551;SDS011;43379;48.160;14.036;2023-02-21T09:05:07;7.53;;;4.50;;
57551;SDS011;43379;48.160;14.036;2023-02-21T09:07:35;4.33;;;3.93;;
57551;SDS011;43379;48.160;14.036;2023-02-21T09:10:01;4.10;;;3.77;;
57551;SDS011;43379;48.160;14.036;2023-02-21T09:12:26;4.37;;;3.97;;
57551;SDS011;43379;48.160;14.036;2023-02-21T09:14:52;4.97;;;4.40;;
57551;SDS011;43379;48.160;14.036;2023-02-21T09:17:17;5.57;;;4.70;;
57551;SDS011;43379;48.160;14.036;2023-02-21T09:19:43;4.43;;;3.83;;
57551;SDS011;43379;48.160;14.036;2023-02-21T09:22:09;11.03;;;4.80;;
57551;SDS011;43379;48.160;14.036;2023-02-21T09:24:36;5.47;;;4.40;;
57551;SDS011;43379;48.160;14.036;2023-02-21T09:27:02;9.90;;;5.37;;
57551;SDS011;43379;48.160;14.036;2023-02-21T09:29:29;6.70;;;4.67;;
57551;SDS011;43379;48.160;14.036;2023-02-21T09:31:59;5.93;;;5.20;;
57551;SDS011;43379;48.160;14.036;2023-02-21T09:34:25;7.10;;;4.97;;
57551;SDS011;43379;48.160;14.036;2023-02-21T09:36:51;7.53;;;5.40;;
57551;SDS011;43379;48.160;14.036;2023-02-21T09:39:18;8.30;;;6.50;;
57551;SDS011;43379;48.160;14.036;2023-02-21T09:41:45;7.30;;;5.80;;
57551;SDS011;43379;48.160;14.036;2023-02-21T09:44:16;8.70;;;5.73;;
57551;SDS011;43379;48.160;14.036;2023-02-21T09:46:54;6.83;;;6.17;;
57551;SDS011;43379;48.160;14.036;2023-02-21T09:49:25;6.70;;;6.10;;
57551;SDS011;43379;48.160;14.036;2023-02-21T09:51:55;6.40;;;5.80;;
57551;SDS011;43379;48.160;14.036;2023-02-21T09:57:10;7.87;;;7.00;;
57551;SDS011;43379;48.160;14.036;2023-02-21T09:59:38;6.63;;;6.00;;
57551;SDS011;43379;48.160;14.036;2023-02-21T10:10:12;7.17;;;6.43;;
57551;SDS011;43379;48.160;14.036;2023-02-21T10:12:42;9.50;;;6.73;;
57551;SDS011;43379;48.160;14.036;2023-02-21T10:15:25;8.40;;;6.10;;
57551;SDS011;43379;48.160;14.036;2023-02-21T10:23:43;7.73;;;5.73;;
57551;SDS011;43379;48.160;14.036;2023-02-21T10:26:12;7.90;;;5.20;;
57551;SDS011;43379;48.160;14.036;2023-02-21T10:28:42;5.20;;;4.70;;
57551;SDS011;43379;48.160;14.036;2023-02-21T10:31:10;7.60;;;5.70;;
57551;SDS011;43379;48.160;14.036;2023-02-21T10:33:44;7.93;;;6.20;;
57551;SDS011;43379;48.160;14.036;2023-02-21T10:36:10;6.33;;;5.73;;
57551;SDS011;43379;48.160;14.036;2023-02-21T10:38:38;6.00;;;5.40;;
57551;SDS011;43379;48.160;14.036;2023-02-21T10:41:06;7.13;;;5.30;;
57551;SDS011;43379;48.160;14.036;2023-02-21T10:43:39;5.67;;;5.07;;
57551;SDS011;43379;48.160;14.036;2023-02-21T10:48:47;5.63;;;4.80;;
57551;SDS011;43379;48.160;14.036;2023-02-21T10:51:38;6.90;;;6.20;;
57551;SDS011;43379;48.160;14.036;2023-02-21T10:54:19;5.70;;;5.13;;
57551;SDS011;43379;48.160;14.036;2023-02-21T10:56:47;6.30;;;5.03;;
57551;SDS011;43379;48.160;14.036;2023-02-21T11:01:53;6.73;;;5.80;;
57551;SDS011;43379;48.160;14.036;2023-02-21T11:09:33;5.60;;;4.87;;
57551;SDS011;43379;48.160;14.036;2023-02-21T11:12:03;6.80;;;5.40;;
57551;SDS011;43379;48.160;14.036;2023-02-21T11:14:40;7.40;;;5.50;;
57551;SDS011;43379;48.160;14.036;2023-02-21T11:17:22;6.00;;;4.57;;
57551;SDS011;43379;48.160;14.036;2023-02-21T11:19:56;6.53;;;5.47;;
57551;SDS011;43379;48.160;14.036;2023-02-21T11:24:59;6.17;;;5.20;;
57551;SDS011;43379;48.160;14.036;2023-02-21T11:27:28;7.10;;;6.00;;
57551;SDS011;43379;48.160;14.036;2023-02-21T11:29:56;8.00;;;5.67;;
57551;SDS011;43379;48.160;14.036;2023-02-21T11:38:04;5.13;;;4.63;;
57551;SDS011;43379;48.160;14.036;2023-02-21T11:43:18;6.47;;;5.87;;
57551;SDS011;43379;48.160;14.036;2023-02-21T11:48:30;5.80;;;5.10;;
57551;SDS011;43379;48.160;14.036;2023-02-21T11:51:07;5.73;;;4.80;;
57551;SDS011;43379;48.160;14.036;2023-02-21T11:53:42;5.47;;;4.97;;
57551;SDS011;43379;48.160;14.036;2023-02-21T12:02:01;4.83;;;4.23;;
57551;SDS011;43379;48.160;14.036;2023-02-21T12:04:55;5.00;;;4.47;;
57551;SDS011;43379;48.160;14.036;2023-02-21T12:13:01;4.47;;;4.07;;
57551;SDS011;43379;48.160;14.036;2023-02-21T12:30:02;5.30;;;4.40;;
57551;SDS011;43379;48.160;14.036;2023-02-21T12:40:11;6.27;;;4.90;;
57551;SDS011;43379;48.160;14.036;2023-02-21T12:45:47;5.40;;;3.90;;
57551;SDS011;43379;48.160;14.036;2023-02-21T12:48:24;5.13;;;4.63;;
57551;SDS011;43379;48.160;14.036;2023-02-21T12:50:52;4.87;;;4.37;;
57551;SDS011;43379;48.160;14.036;2023-02-21T12:53:23;7.40;;;4.47;;
57551;SDS011;43379;48.160;14.036;2023-02-21T12:56:06;4.27;;;3.87;;
57551;SDS011;43379;48.160;14.036;2023-02-21T12:58:47;7.23;;;4.20;;
57551;SDS011;43379;48.160;14.036;2023-02-21T13:01:46;4.37;;;3.80;;
57551;SDS011;43379;48.160;14.036;2023-02-21T13:07:10;5.50;;;4.70;;
57551;SDS011;43379;48.160;14.036;2023-02-21T13:12:24;5.80;;;5.23;;
57551;SDS011;43379;48.160;14.036;2023-02-21T13:17:23;7.27;;;4.50;;
57551;SDS011;43379;48.160;14.036;2023-02-21T13:19:54;5.63;;;3.83;;
57551;SDS011;43379;48.160;14.036;2023-02-21T13:25:58;4.23;;;3.83;;
57551;SDS011;43379;48.160;14.036;2023-02-21T13:28:45;4.40;;;3.67;;
57551;SDS011;43379;48.160;14.036;2023-02-21T13:31:17;4.57;;;4.17;;
57551;SDS011;43379;48.160;14.036;2023-02-21T13:34:07;4.73;;;4.20;;
57551;SDS011;43379;48.160;14.036;2023-02-21T13:41:53;5.27;;;4.10;;
57551;SDS011;43379;48.160;14.036;2023-02-21T13:44:28;4.40;;;4.10;;
57551;SDS011;43379;48.160;14.036;2023-02-21T13:47:15;4.63;;;4.13;;
57551;SDS011;43379;48.160;14.036;2023-02-21T13:49:50;4.03;;;3.67;;
57551;SDS011;43379;48.160;14.036;2023-02-21T13:57:47;4.33;;;3.53;;
57551;SDS011;43379;48.160;14.036;2023-02-21T14:10:43;5.13;;;4.60;;
57551;SDS011;43379;48.160;14.036;2023-02-21T14:15:57;4.83;;;4.03;;
57551;SDS011;43379;48.160;14.036;2023-02-21T14:24:02;3.77;;;2.70;;
57551;SDS011;43379;48.160;14.036;2023-02-21T14:26:36;4.10;;;3.50;;
57551;SDS011;43379;48.160;14.036;2023-02-21T14:34:22;3.23;;;2.90;;
57551;SDS011;43379;48.160;14.036;2023-02-21T14:37:00;3.50;;;2.90;;
57551;SDS011;43379;48.160;14.036;2023-02-21T14:39:38;4.60;;;2.57;;
57551;SDS011;43379;48.160;14.036;2023-02-21T14:42:25;4.20;;;3.07;;
57551;SDS011;43379;48.160;14.036;2023-02-21T15:10:13;4.13;;;3.00;;
57551;SDS011;43379;48.160;14.036;2023-02-21T15:12:45;3.23;;;2.40;;
57551;SDS011;43379;48.160;14.036;2023-02-21T15:15:14;3.10;;;2.80;;
57551;SDS011;43379;48.160;14.036;2023-02-21T15:18:10;4.10;;;2.53;;
57551;SDS011;43379;48.160;14.036;2023-02-21T15:20:51;3.33;;;2.73;;
57551;SDS011;43379;48.160;14.036;2023-02-21T15:23:41;3.80;;;3.40;;
57551;SDS011;43379;48.160;14.036;2023-02-21T15:26:19;5.90;;;2.57;;
57551;SDS011;43379;48.160;14.036;2023-02-21T15:28:46;4.33;;;2.80;;
57551;SDS011;43379;48.160;14.036;2023-02-21T15:31:41;3.90;;;2.80;;
57551;SDS011;43379;48.160;14.036;2023-02-21T15:34:13;2.50;;;2.10;;
57551;SDS011;43379;48.160;14.036;2023-02-21T15:36:42;3.23;;;2.60;;
57551;SDS011;43379;48.160;14.036;2023-02-21T15:39:26;2.67;;;2.43;;
57551;SDS011;43379;48.160;14.036;2023-02-21T15:41:56;3.80;;;3.03;;
57551;SDS011;43379;48.160;14.036;2023-02-21T15:44:30;8.80;;;4.77;;
57551;SDS011;43379;48.160;14.036;2023-02-21T15:47:01;4.60;;;3.20;;
57551;SDS011;43379;48.160;14.036;2023-02-21T15:49:37;3.57;;;3.23;;
57551;SDS011;43379;48.160;14.036;2023-02-21T15:52:24;4.50;;;2.97;;
57551;SDS011;43379;48.160;14.036;2023-02-21T16:00:30;4.50;;;2.83;;
57551;SDS011;43379;48.160;14.036;2023-02-21T16:06:21;6.63;;;3.57;;
57551;SDS011;43379;48.160;14.036;2023-02-21T16:09:02;4.40;;;3.30;;
57551;SDS011;43379;48.160;14.036;2023-02-21T16:15:13;3.93;;;3.40;;
57551;SDS011;43379;48.160;14.036;2023-02-21T16:17:58;3.87;;;3.47;;
57551;SDS011;43379;48.160;14.036;2023-02-21T16:20:34;3.47;;;3.00;;
57551;SDS011;43379;48.160;14.036;2023-02-21T16:23:24;4.07;;;3.57;;
57551;SDS011;43379;48.160;14.036;2023-02-21T16:28:39;6.10;;;5.13;;
57551;SDS011;43379;48.160;14.036;2023-02-21T16:31:06;8.23;;;4.70;;
57551;SDS011;43379;48.160;14.036;2023-02-21T16:33:36;4.80;;;4.30;;
57551;SDS011;43379;48.160;14.036;2023-02-21T16:36:14;4.10;;;3.70;;
57551;SDS011;43379;48.160;14.036;2023-02-21T16:38:44;9.47;;;3.50;;
57551;SDS011;43379;48.160;14.036;2023-02-21T16:41:13;17.00;;;4.80;;
57551;SDS011;43379;48.160;14.036;2023-02-21T16:43:39;4.23;;;3.87;;
57551;SDS011;43379;48.160;14.036;2023-02-21T16:46:05;5.43;;;4.40;;
57551;SDS011;43379;48.160;14.036;2023-02-21T16:48:31;6.93;;;4.23;;
57551;SDS011;43379;48.160;14.036;2023-02-21T16:50:58;4.77;;;4.13;;
57551;SDS011;43379;48.160;14.036;2023-02-21T16:53:29;7.57;;;4.93;;
57551;SDS011;43379;48.160;14.036;2023-02-21T16:55:55;5.27;;;4.77;;
57551;SDS011;43379;48.160;14.036;2023-02-21T16:58:25;5.10;;;4.70;;
57551;SDS011;43379;48.160;14.036;2023-02-21T17:00:55;5.80;;;5.20;;
57551;SDS011;43379;48.160;14.036;2023-02-21T17:03:22;4.80;;;4.33;;
57551;SDS011;43379;48.160;14.036;2023-02-21T17:05:51;5.50;;;5.00;;
57551;SDS011;43379;48.160;14.036;2023-02-21T17:08:18;5.53;;;5.00;;
57551;SDS011;43379;48.160;14.036;2023-02-21T17:10:44;6.43;;;4.50;;
57551;SDS011;43379;48.160;14.036;2023-02-21T17:13:10;5.60;;;5.10;;
57551;SDS011;43379;48.160;14.036;2023-02-21T17:15:35;5.40;;;4.60;;
57551;SDS011;43379;48.160;14.036;2023-02-21T17:18:01;5.90;;;5.00;;
57551;SDS011;43379;48.160;14.036;2023-02-21T17:20:28;5.80;;;4.70;;
57551;SDS011;43379;48.160;14.036;2023-02-21T17:22:54;6.70;;;5.50;;
57551;SDS011;43379;48.160;14.036;2023-02-21T17:25:22;5.67;;;4.87;;
57551;SDS011;43379;48.160;14.036;2023-02-21T17:27:49;7.23;;;4.70;;
57551;SDS011;43379;48.160;14.036;2023-02-21T17:30:16;6.27;;;5.40;;
57551;SDS011;43379;48.160;14.036;2023-02-21T17:32:42;6.63;;;4.60;;
57551;SDS011;43379;48.160;14.036;2023-02-21T17:35:10;7.10;;;5.07;;
57551;SDS011;43379;48.160;14.036;2023-02-21T17:37:40;9.50;;;5.50;;
57551;SDS011;43379;48.160;14.036;2023-02-21T17:40:07;7.67;;;5.70;;
57551;SDS011;43379;48.160;14.036;2023-02-21T17:42:34;7.33;;;4.73;;
57551;SDS011;43379;48.160;14.036;2023-02-21T17:44:59;7.40;;;5.40;;
57551;SDS011;43379;48.160;14.036;2023-02-21T17:47:26;6.13;;;5.53;;
57551;SDS011;43379;48.160;14.036;2023-02-21T17:49:53;9.17;;;8.37;;
57551;SDS011;43379;48.160;14.036;2023-02-21T17:52:19;8.87;;;7.97;;
57551;SDS011;43379;48.160;14.036;2023-02-21T17:54:45;9.17;;;7.87;;
57551;SDS011;43379;48.160;14.036;2023-02-21T17:57:11;7.73;;;7.03;;
57551;SDS011;43379;48.160;14.036;2023-02-21T17:59:37;11.57;;;8.17;;
57551;SDS011;43379;48.160;14.036;2023-02-21T18:02:04;9.00;;;8.10;;
57551;SDS011;43379;48.160;14.036;2023-02-21T18:04:32;8.33;;;7.43;;
57551;SDS011;43379;48.160;14.036;2023-02-21T18:06:58;8.80;;;7.90;;
57551;SDS011;43379;48.160;14.036;2023-02-21T18:09:24;13.27;;;9.37;;
57551;SDS011;43379;48.160;14.036;2023-02-21T18:11:51;9.80;;;8.90;;
57551;SDS011;43379;48.160;14.036;2023-02-21T18:14:19;9.97;;;8.53;;
57551;SDS011;43379;48.160;14.036;2023-02-21T18:16:46;9.93;;;9.03;;
57551;SDS011;43379;48.160;14.036;2023-02-21T18:19:12;11.07;;;9.97;;
57551;SDS011;43379;48.160;14.036;2023-02-21T18:21:38;12.57;;;9.80;;
57551;SDS011;43379;48.160;14.036;2023-02-21T18:24:08;20.87;;;13.20;;
57551;SDS011;43379;48.160;14.036;2023-02-21T18:26:35;13.93;;;12.43;;
57551;SDS011;43379;48.160;14.036;2023-02-21T18:29:02;21.93;;;13.60;;